Ann Arbor Township, Michigan
Current Conditions -  °F | °C
As of 2:53 PM on Saturday 25 Oct 2014 (Local Time) from KARB Reporting Station
Clear Clear  
Wind Chill: 69°   Ceiling: Unl
Heat Index: 69°   Visibility: 10mi
Dew Point: 45°   Wind: 17mph
Humidity: 42%   Direction: 270°W
Pressure: 29.75"   Gusts: 24mph
Location:  42.3281°N, 83.7037°W
Report Text: KARB 251853Z 27015G21KT 10SM CLR 21/07 A2975 RMK AO2 PK WND 27026/1754 SLP075 T02060072
Loading
Personal Weather Stations






























Interactive Weather Map
Tropical Storm Tracking
New forecast layout! Learn more

10-Day Weather Forecast

Advertisements
Track Severe Weather on mobile